sensor_id;sensor_type;location;lat;lon;timestamp;P1;durP1;ratioP1;P2;durP2;ratioP2
63906;SDS011;50075;49.484;11.238;2022-12-05T00:00:55;56.30;;;14.65;;
63906;SDS011;50075;49.484;11.238;2022-12-05T00:03:20;50.58;;;14.13;;
63906;SDS011;50075;49.484;11.238;2022-12-05T00:05:46;58.20;;;14.10;;
63906;SDS011;50075;49.484;11.238;2022-12-05T00:08:11;45.47;;;13.77;;
63906;SDS011;50075;49.484;11.238;2022-12-05T00:10:37;43.75;;;12.35;;
63906;SDS011;50075;49.484;11.238;2022-12-05T00:13:03;55.50;;;14.05;;
63906;SDS011;50075;49.484;11.238;2022-12-05T00:15:28;58.58;;;14.45;;
63906;SDS011;50075;49.484;11.238;2022-12-05T00:17:54;40.42;;;12.45;;
63906;SDS011;50075;49.484;11.238;2022-12-05T00:20:19;49.70;;;14.32;;
63906;SDS011;50075;49.484;11.238;2022-12-05T00:22:45;46.58;;;13.02;;
63906;SDS011;50075;49.484;11.238;2022-12-05T00:25:10;45.33;;;12.43;;
63906;SDS011;50075;49.484;11.238;2022-12-05T00:27:36;54.50;;;14.05;;
63906;SDS011;50075;49.484;11.238;2022-12-05T00:30:02;47.30;;;14.05;;
63906;SDS011;50075;49.484;11.238;2022-12-05T00:32:28;49.38;;;14.70;;
63906;SDS011;50075;49.484;11.238;2022-12-05T00:34:54;32.47;;;8.35;;
63906;SDS011;50075;49.484;11.238;2022-12-05T00:37:19;47.00;;;13.23;;
63906;SDS011;50075;49.484;11.238;2022-12-05T00:39:45;49.65;;;13.85;;
63906;SDS011;50075;49.484;11.238;2022-12-05T00:42:10;50.08;;;14.02;;
63906;SDS011;50075;49.484;11.238;2022-12-05T00:44:35;56.22;;;14.00;;
63906;SDS011;50075;49.484;11.238;2022-12-05T00:47:01;47.42;;;13.20;;
63906;SDS011;50075;49.484;11.238;2022-12-05T00:49:27;50.38;;;13.65;;
63906;SDS011;50075;49.484;11.238;2022-12-05T00:51:52;53.50;;;13.73;;
63906;SDS011;50075;49.484;11.238;2022-12-05T00:54:18;39.13;;;11.77;;
63906;SDS011;50075;49.484;11.238;2022-12-05T00:56:43;47.15;;;13.20;;
63906;SDS011;50075;49.484;11.238;2022-12-05T00:59:11;52.42;;;13.27;;
63906;SDS011;50075;49.484;11.238;2022-12-05T01:01:41;52.70;;;13.68;;
63906;SDS011;50075;49.484;11.238;2022-12-05T01:04:11;48.35;;;13.40;;
63906;SDS011;50075;49.484;11.238;2022-12-05T01:06:39;48.92;;;13.77;;
63906;SDS011;50075;49.484;11.238;2022-12-05T01:09:06;47.55;;;13.68;;
63906;SDS011;50075;49.484;11.238;2022-12-05T01:11:32;45.60;;;13.38;;
63906;SDS011;50075;49.484;11.238;2022-12-05T01:13:57;48.92;;;12.68;;
63906;SDS011;50075;49.484;11.238;2022-12-05T01:16:24;48.40;;;14.18;;
63906;SDS011;50075;49.484;11.238;2022-12-05T01:18:53;52.33;;;13.23;;
63906;SDS011;50075;49.484;11.238;2022-12-05T01:21:20;46.45;;;12.82;;
63906;SDS011;50075;49.484;11.238;2022-12-05T01:23:45;47.50;;;13.60;;
63906;SDS011;50075;49.484;11.238;2022-12-05T01:26:12;61.17;;;16.08;;
63906;SDS011;50075;49.484;11.238;2022-12-05T01:28:39;65.18;;;15.45;;
63906;SDS011;50075;49.484;11.238;2022-12-05T01:31:06;55.42;;;15.93;;
63906;SDS011;50075;49.484;11.238;2022-12-05T01:33:38;61.08;;;15.50;;
63906;SDS011;50075;49.484;11.238;2022-12-05T01:36:03;59.35;;;16.08;;
63906;SDS011;50075;49.484;11.238;2022-12-05T01:38:31;55.95;;;15.25;;
63906;SDS011;50075;49.484;11.238;2022-12-05T01:41:00;57.42;;;16.48;;
63906;SDS011;50075;49.484;11.238;2022-12-05T01:43:27;63.90;;;15.68;;
63906;SDS011;50075;49.484;11.238;2022-12-05T01:45:52;61.00;;;15.95;;
63906;SDS011;50075;49.484;11.238;2022-12-05T01:48:25;53.47;;;15.85;;
63906;SDS011;50075;49.484;11.238;2022-12-05T01:50:54;57.05;;;16.33;;
63906;SDS011;50075;49.484;11.238;2022-12-05T01:53:23;47.47;;;14.52;;
63906;SDS011;50075;49.484;11.238;2022-12-05T01:55:49;53.95;;;14.48;;
63906;SDS011;50075;49.484;11.238;2022-12-05T01:58:15;56.50;;;14.85;;
63906;SDS011;50075;49.484;11.238;2022-12-05T02:00:42;63.05;;;15.77;;
63906;SDS011;50075;49.484;11.238;2022-12-05T02:03:08;54.70;;;15.80;;
63906;SDS011;50075;49.484;11.238;2022-12-05T02:05:38;54.35;;;14.73;;
63906;SDS011;50075;49.484;11.238;2022-12-05T02:08:04;56.75;;;14.55;;
63906;SDS011;50075;49.484;11.238;2022-12-05T02:10:39;50.78;;;13.75;;
63906;SDS011;50075;49.484;11.238;2022-12-05T02:15:55;59.83;;;15.77;;
63906;SDS011;50075;49.484;11.238;2022-12-05T02:27:27;49.50;;;13.18;;
63906;SDS011;50075;49.484;11.238;2022-12-05T02:38:35;55.92;;;13.73;;
63906;SDS011;50075;49.484;11.238;2022-12-05T02:41:16;47.92;;;12.00;;
63906;SDS011;50075;49.484;11.238;2022-12-05T02:46:21;41.20;;;10.18;;
63906;SDS011;50075;49.484;11.238;2022-12-05T02:48:50;46.03;;;11.98;;
63906;SDS011;50075;49.484;11.238;2022-12-05T02:51:20;53.20;;;13.00;;
63906;SDS011;50075;49.484;11.238;2022-12-05T02:53:49;49.60;;;12.20;;
63906;SDS011;50075;49.484;11.238;2022-12-05T02:56:16;50.90;;;13.98;;
63906;SDS011;50075;49.484;11.238;2022-12-05T02:58:44;44.08;;;13.40;;
63906;SDS011;50075;49.484;11.238;2022-12-05T03:01:15;54.83;;;14.23;;
63906;SDS011;50075;49.484;11.238;2022-12-05T03:03:42;39.53;;;12.00;;
63906;SDS011;50075;49.484;11.238;2022-12-05T03:06:09;37.00;;;10.45;;
63906;SDS011;50075;49.484;11.238;2022-12-05T03:08:47;38.05;;;10.20;;
63906;SDS011;50075;49.484;11.238;2022-12-05T03:11:18;52.72;;;14.07;;
63906;SDS011;50075;49.484;11.238;2022-12-05T03:13:44;45.65;;;12.25;;
63906;SDS011;50075;49.484;11.238;2022-12-05T03:16:37;38.55;;;10.98;;
63906;SDS011;50075;49.484;11.238;2022-12-05T03:19:11;55.90;;;14.15;;
63906;SDS011;50075;49.484;11.238;2022-12-05T03:22:06;59.78;;;14.48;;
63906;SDS011;50075;49.484;11.238;2022-12-05T03:24:39;42.53;;;10.57;;
63906;SDS011;50075;49.484;11.238;2022-12-05T03:29:50;51.15;;;12.75;;
63906;SDS011;50075;49.484;11.238;2022-12-05T03:32:32;55.58;;;15.38;;
63906;SDS011;50075;49.484;11.238;2022-12-05T03:35:19;37.42;;;10.10;;
63906;SDS011;50075;49.484;11.238;2022-12-05T03:45:45;51.07;;;13.87;;
63906;SDS011;50075;49.484;11.238;2022-12-05T03:48:18;30.38;;;7.22;;
63906;SDS011;50075;49.484;11.238;2022-12-05T03:50:51;36.08;;;7.13;;
63906;SDS011;50075;49.484;11.238;2022-12-05T03:53:28;44.47;;;10.20;;
63906;SDS011;50075;49.484;11.238;2022-12-05T03:56:04;69.22;;;13.05;;
63906;SDS011;50075;49.484;11.238;2022-12-05T03:58:37;68.70;;;16.73;;
63906;SDS011;50075;49.484;11.238;2022-12-05T04:01:08;47.05;;;11.73;;
63906;SDS011;50075;49.484;11.238;2022-12-05T04:03:39;58.00;;;14.70;;
63906;SDS011;50075;49.484;11.238;2022-12-05T04:06:12;49.75;;;12.68;;
63906;SDS011;50075;49.484;11.238;2022-12-05T04:08:51;44.80;;;11.90;;
63906;SDS011;50075;49.484;11.238;2022-12-05T04:11:20;45.13;;;11.20;;
63906;SDS011;50075;49.484;11.238;2022-12-05T04:13:50;37.15;;;9.95;;
63906;SDS011;50075;49.484;11.238;2022-12-05T04:16:19;45.65;;;10.90;;
63906;SDS011;50075;49.484;11.238;2022-12-05T04:21:46;41.00;;;8.80;;
63906;SDS011;50075;49.484;11.238;2022-12-05T04:24:17;52.40;;;13.75;;
63906;SDS011;50075;49.484;11.238;2022-12-05T04:30:11;61.45;;;13.43;;
63906;SDS011;50075;49.484;11.238;2022-12-05T04:32:51;60.95;;;12.70;;
63906;SDS011;50075;49.484;11.238;2022-12-05T04:35:25;66.57;;;14.57;;
63906;SDS011;50075;49.484;11.238;2022-12-05T04:37:54;54.05;;;12.45;;
63906;SDS011;50075;49.484;11.238;2022-12-05T04:40:33;61.13;;;13.45;;
63906;SDS011;50075;49.484;11.238;2022-12-05T04:43:03;68.63;;;16.10;;
63906;SDS011;50075;49.484;11.238;2022-12-05T04:45:30;33.95;;;6.88;;
63906;SDS011;50075;49.484;11.238;2022-12-05T04:47:58;77.25;;;17.88;;
63906;SDS011;50075;49.484;11.238;2022-12-05T04:50:29;75.45;;;16.33;;
63906;SDS011;50075;49.484;11.238;2022-12-05T04:52:57;54.95;;;14.68;;
63906;SDS011;50075;49.484;11.238;2022-12-05T04:55:25;45.13;;;9.43;;
63906;SDS011;50075;49.484;11.238;2022-12-05T05:00:17;53.28;;;13.80;;
63906;SDS011;50075;49.484;11.238;2022-12-05T05:02:47;58.05;;;14.40;;
63906;SDS011;50075;49.484;11.238;2022-12-05T05:05:18;59.30;;;11.35;;
63906;SDS011;50075;49.484;11.238;2022-12-05T05:07:46;72.70;;;14.68;;
63906;SDS011;50075;49.484;11.238;2022-12-05T05:10:14;48.90;;;11.00;;
63906;SDS011;50075;49.484;11.238;2022-12-05T05:12:43;59.60;;;14.18;;
63906;SDS011;50075;49.484;11.238;2022-12-05T05:15:08;51.58;;;13.23;;
63906;SDS011;50075;49.484;11.238;2022-12-05T05:17:33;33.35;;;7.93;;
63906;SDS011;50075;49.484;11.238;2022-12-05T05:19:59;63.08;;;15.57;;
63906;SDS011;50075;49.484;11.238;2022-12-05T05:22:47;44.85;;;10.00;;
63906;SDS011;50075;49.484;11.238;2022-12-05T05:25:13;59.88;;;13.40;;
63906;SDS011;50075;49.484;11.238;2022-12-05T05:27:39;49.63;;;12.07;;
63906;SDS011;50075;49.484;11.238;2022-12-05T05:30:04;50.60;;;11.25;;
63906;SDS011;50075;49.484;11.238;2022-12-05T05:32:33;49.53;;;12.35;;
63906;SDS011;50075;49.484;11.238;2022-12-05T05:34:58;37.22;;;9.93;;
63906;SDS011;50075;49.484;11.238;2022-12-05T05:37:24;43.10;;;10.63;;
63906;SDS011;50075;49.484;11.238;2022-12-05T05:39:49;46.25;;;11.32;;
63906;SDS011;50075;49.484;11.238;2022-12-05T05:42:14;54.45;;;11.73;;
63906;SDS011;50075;49.484;11.238;2022-12-05T05:44:40;45.58;;;10.50;;
63906;SDS011;50075;49.484;11.238;2022-12-05T05:47:05;34.90;;;8.75;;
63906;SDS011;50075;49.484;11.238;2022-12-05T05:49:30;42.70;;;8.52;;
63906;SDS011;50075;49.484;11.238;2022-12-05T05:51:56;44.28;;;10.20;;
63906;SDS011;50075;49.484;11.238;2022-12-05T05:54:21;40.08;;;9.60;;
63906;SDS011;50075;49.484;11.238;2022-12-05T05:56:46;38.45;;;8.85;;
63906;SDS011;50075;49.484;11.238;2022-12-05T05:59:12;37.83;;;9.15;;
63906;SDS011;50075;49.484;11.238;2022-12-05T06:01:37;43.00;;;9.50;;
63906;SDS011;50075;49.484;11.238;2022-12-05T06:04:02;43.20;;;9.57;;
63906;SDS011;50075;49.484;11.238;2022-12-05T06:06:28;32.72;;;8.40;;
63906;SDS011;50075;49.484;11.238;2022-12-05T06:08:53;35.42;;;8.45;;
63906;SDS011;50075;49.484;11.238;2022-12-05T06:11:20;33.15;;;8.68;;
63906;SDS011;50075;49.484;11.238;2022-12-05T06:13:48;36.63;;;7.88;;
63906;SDS011;50075;49.484;11.238;2022-12-05T06:16:14;36.00;;;8.90;;
63906;SDS011;50075;49.484;11.238;2022-12-05T06:18:40;38.45;;;7.78;;
63906;SDS011;50075;49.484;11.238;2022-12-05T06:21:06;30.88;;;6.60;;
63906;SDS011;50075;49.484;11.238;2022-12-05T06:23:33;36.22;;;9.07;;
63906;SDS011;50075;49.484;11.238;2022-12-05T06:25:59;31.50;;;6.85;;
63906;SDS011;50075;49.484;11.238;2022-12-05T06:28:25;29.88;;;7.47;;
63906;SDS011;50075;49.484;11.238;2022-12-05T06:30:51;44.03;;;7.90;;
63906;SDS011;50075;49.484;11.238;2022-12-05T06:33:17;32.17;;;8.95;;
63906;SDS011;50075;49.484;11.238;2022-12-05T06:35:43;42.63;;;9.23;;
63906;SDS011;50075;49.484;11.238;2022-12-05T06:38:09;30.73;;;7.10;;
63906;SDS011;50075;49.484;11.238;2022-12-05T06:40:38;37.60;;;8.25;;
63906;SDS011;50075;49.484;11.238;2022-12-05T06:43:04;41.90;;;8.10;;
63906;SDS011;50075;49.484;11.238;2022-12-05T06:45:29;48.72;;;9.88;;
63906;SDS011;50075;49.484;11.238;2022-12-05T06:47:55;41.72;;;8.13;;
63906;SDS011;50075;49.484;11.238;2022-12-05T06:50:20;45.80;;;9.38;;
63906;SDS011;50075;49.484;11.238;2022-12-05T06:52:45;42.72;;;9.77;;
63906;SDS011;50075;49.484;11.238;2022-12-05T06:55:11;38.38;;;8.35;;
63906;SDS011;50075;49.484;11.238;2022-12-05T06:57:36;32.85;;;7.30;;
63906;SDS011;50075;49.484;11.238;2022-12-05T07:00:02;51.05;;;9.65;;
63906;SDS011;50075;49.484;11.238;2022-12-05T07:02:49;57.80;;;11.98;;
63906;SDS011;50075;49.484;11.238;2022-12-05T07:05:15;48.33;;;9.82;;
63906;SDS011;50075;49.484;11.238;2022-12-05T07:07:40;31.98;;;7.32;;
63906;SDS011;50075;49.484;11.238;2022-12-05T07:10:06;52.65;;;11.48;;
63906;SDS011;50075;49.484;11.238;2022-12-05T07:12:32;47.60;;;10.77;;
63906;SDS011;50075;49.484;11.238;2022-12-05T07:14:58;51.88;;;10.52;;
63906;SDS011;50075;49.484;11.238;2022-12-05T07:17:24;44.30;;;10.52;;
63906;SDS011;50075;49.484;11.238;2022-12-05T07:19:50;38.33;;;9.20;;
63906;SDS011;50075;49.484;11.238;2022-12-05T07:22:16;41.97;;;9.40;;
63906;SDS011;50075;49.484;11.238;2022-12-05T07:24:43;42.55;;;8.95;;
63906;SDS011;50075;49.484;11.238;2022-12-05T07:27:09;35.25;;;7.95;;
63906;SDS011;50075;49.484;11.238;2022-12-05T07:29:35;51.50;;;9.70;;
63906;SDS011;50075;49.484;11.238;2022-12-05T07:32:00;39.25;;;8.52;;
63906;SDS011;50075;49.484;11.238;2022-12-05T07:34:25;46.53;;;9.93;;
63906;SDS011;50075;49.484;11.238;2022-12-05T07:36:51;43.85;;;8.52;;
63906;SDS011;50075;49.484;11.238;2022-12-05T07:39:16;35.45;;;8.18;;
63906;SDS011;50075;49.484;11.238;2022-12-05T07:41:41;45.33;;;10.40;;
63906;SDS011;50075;49.484;11.238;2022-12-05T07:44:08;41.15;;;8.43;;
63906;SDS011;50075;49.484;11.238;2022-12-05T07:46:35;45.88;;;8.75;;
63906;SDS011;50075;49.484;11.238;2022-12-05T07:49:02;28.75;;;7.70;;
63906;SDS011;50075;49.484;11.238;2022-12-05T07:51:27;43.92;;;9.77;;
63906;SDS011;50075;49.484;11.238;2022-12-05T07:53:52;50.65;;;9.52;;
63906;SDS011;50075;49.484;11.238;2022-12-05T07:56:18;53.75;;;10.77;;
63906;SDS011;50075;49.484;11.238;2022-12-05T07:58:44;52.92;;;9.82;;
63906;SDS011;50075;49.484;11.238;2022-12-05T08:03:39;40.97;;;10.10;;
63906;SDS011;50075;49.484;11.238;2022-12-05T08:06:08;51.83;;;10.85;;
63906;SDS011;50075;49.484;11.238;2022-12-05T08:08:35;44.03;;;9.63;;
63906;SDS011;50075;49.484;11.238;2022-12-05T08:11:01;46.35;;;10.63;;
63906;SDS011;50075;49.484;11.238;2022-12-05T08:13:37;47.13;;;9.48;;
63906;SDS011;50075;49.484;11.238;2022-12-05T08:16:03;41.42;;;9.48;;
63906;SDS011;50075;49.484;11.238;2022-12-05T08:18:31;46.17;;;9.73;;
63906;SDS011;50075;49.484;11.238;2022-12-05T08:23:33;46.53;;;10.82;;
63906;SDS011;50075;49.484;11.238;2022-12-05T08:28:29;41.60;;;8.57;;
63906;SDS011;50075;49.484;11.238;2022-12-05T08:30:54;44.22;;;10.20;;
63906;SDS011;50075;49.484;11.238;2022-12-05T08:33:20;49.97;;;10.95;;
63906;SDS011;50075;49.484;11.238;2022-12-05T08:35:45;54.95;;;11.32;;
63906;SDS011;50075;49.484;11.238;2022-12-05T08:38:11;45.10;;;10.57;;
63906;SDS011;50075;49.484;11.238;2022-12-05T08:40:36;46.78;;;10.38;;
63906;SDS011;50075;49.484;11.238;2022-12-05T08:43:01;49.50;;;10.75;;
63906;SDS011;50075;49.484;11.238;2022-12-05T08:45:27;48.05;;;10.63;;
63906;SDS011;50075;49.484;11.238;2022-12-05T08:47:52;38.63;;;9.77;;
63906;SDS011;50075;49.484;11.238;2022-12-05T08:50:17;45.35;;;10.52;;
63906;SDS011;50075;49.484;11.238;2022-12-05T08:52:43;42.35;;;9.82;;
63906;SDS011;50075;49.484;11.238;2022-12-05T08:55:08;40.85;;;10.38;;
63906;SDS011;50075;49.484;11.238;2022-12-05T08:57:33;45.38;;;10.52;;
63906;SDS011;50075;49.484;11.238;2022-12-05T08:59:59;51.80;;;10.65;;
63906;SDS011;50075;49.484;11.238;2022-12-05T09:02:24;44.03;;;9.07;;
63906;SDS011;50075;49.484;11.238;2022-12-05T09:04:49;51.00;;;11.65;;
63906;SDS011;50075;49.484;11.238;2022-12-05T09:07:16;37.40;;;9.05;;
63906;SDS011;50075;49.484;11.238;2022-12-05T09:09:41;52.10;;;12.48;;
63906;SDS011;50075;49.484;11.238;2022-12-05T09:12:06;41.85;;;10.75;;
63906;SDS011;50075;49.484;11.238;2022-12-05T09:14:32;42.78;;;10.60;;
63906;SDS011;50075;49.484;11.238;2022-12-05T09:16:58;44.13;;;10.25;;
63906;SDS011;50075;49.484;11.238;2022-12-05T09:19:24;43.95;;;10.63;;
63906;SDS011;50075;49.484;11.238;2022-12-05T09:21:51;45.15;;;9.80;;
63906;SDS011;50075;49.484;11.238;2022-12-05T09:24:17;44.33;;;10.48;;
63906;SDS011;50075;49.484;11.238;2022-12-05T09:26:42;44.55;;;10.07;;
63906;SDS011;50075;49.484;11.238;2022-12-05T09:29:08;49.95;;;11.48;;
63906;SDS011;50075;49.484;11.238;2022-12-05T09:31:34;35.45;;;8.60;;
63906;SDS011;50075;49.484;11.238;2022-12-05T09:34:01;46.63;;;11.38;;
63906;SDS011;50075;49.484;11.238;2022-12-05T09:36:28;44.63;;;10.73;;
63906;SDS011;50075;49.484;11.238;2022-12-05T09:38:54;51.75;;;11.45;;
63906;SDS011;50075;49.484;11.238;2022-12-05T09:44:47;64.35;;;13.05;;
63906;SDS011;50075;49.484;11.238;2022-12-05T09:53:40;63.60;;;13.25;;
63906;SDS011;50075;49.484;11.238;2022-12-05T09:57:59;58.92;;;12.95;;
63906;SDS011;50075;49.484;11.238;2022-12-05T10:00:26;53.88;;;12.75;;
63906;SDS011;50075;49.484;11.238;2022-12-05T10:17:19;49.13;;;10.70;;
63906;SDS011;50075;49.484;11.238;2022-12-05T10:19:54;55.08;;;11.70;;
63906;SDS011;50075;49.484;11.238;2022-12-05T10:22:24;45.90;;;10.77;;
63906;SDS011;50075;49.484;11.238;2022-12-05T10:24:55;52.17;;;11.10;;
63906;SDS011;50075;49.484;11.238;2022-12-05T10:27:36;42.50;;;9.93;;
63906;SDS011;50075;49.484;11.238;2022-12-05T10:30:06;45.30;;;10.70;;
63906;SDS011;50075;49.484;11.238;2022-12-05T10:32:55;41.83;;;9.13;;
63906;SDS011;50075;49.484;11.238;2022-12-05T10:35:30;44.90;;;10.57;;
63906;SDS011;50075;49.484;11.238;2022-12-05T10:37:59;48.60;;;11.63;;
63906;SDS011;50075;49.484;11.238;2022-12-05T10:40:36;40.90;;;10.45;;
63906;SDS011;50075;49.484;11.238;2022-12-05T10:43:04;32.38;;;7.68;;
63906;SDS011;50075;49.484;11.238;2022-12-05T10:45:32;38.47;;;8.90;;
63906;SDS011;50075;49.484;11.238;2022-12-05T10:47:58;37.60;;;9.00;;
63906;SDS011;50075;49.484;11.238;2022-12-05T10:50:27;46.78;;;11.20;;
63906;SDS011;50075;49.484;11.238;2022-12-05T10:52:56;101.57;;;15.70;;
63906;SDS011;50075;49.484;11.238;2022-12-05T10:55:43;71.38;;;12.15;;
63906;SDS011;50075;49.484;11.238;2022-12-05T10:58:16;86.13;;;12.98;;
63906;SDS011;50075;49.484;11.238;2022-12-05T11:01:08;69.95;;;12.52;;
63906;SDS011;50075;49.484;11.238;2022-12-05T11:03:38;66.95;;;12.07;;
63906;SDS011;50075;49.484;11.238;2022-12-05T11:06:21;45.45;;;10.70;;
63906;SDS011;50075;49.484;11.238;2022-12-05T11:08:50;51.08;;;10.73;;
63906;SDS011;50075;49.484;11.238;2022-12-05T11:11:22;51.22;;;11.55;;
63906;SDS011;50075;49.484;11.238;2022-12-05T11:13:52;42.97;;;10.52;;
63906;SDS011;50075;49.484;11.238;2022-12-05T11:16:25;49.75;;;10.77;;
63906;SDS011;50075;49.484;11.238;2022-12-05T11:18:50;46.88;;;10.40;;
63906;SDS011;50075;49.484;11.238;2022-12-05T11:21:17;49.13;;;11.80;;
63906;SDS011;50075;49.484;11.238;2022-12-05T11:23:44;43.50;;;10.15;;
63906;SDS011;50075;49.484;11.238;2022-12-05T11:26:17;43.65;;;10.27;;
63906;SDS011;50075;49.484;11.238;2022-12-05T11:28:43;41.65;;;10.23;;
63906;SDS011;50075;49.484;11.238;2022-12-05T11:33:40;47.22;;;12.57;;
63906;SDS011;50075;49.484;11.238;2022-12-05T11:38:38;50.55;;;12.15;;
63906;SDS011;50075;49.484;11.238;2022-12-05T11:55:12;45.87;;;11.37;;
63906;SDS011;50075;49.484;11.238;2022-12-05T12:05:53;45.90;;;11.13;;
63906;SDS011;50075;49.484;11.238;2022-12-05T12:08:37;44.08;;;10.90;;
63906;SDS011;50075;49.484;11.238;2022-12-05T12:11:18;53.55;;;12.25;;
63906;SDS011;50075;49.484;11.238;2022-12-05T12:16:39;38.63;;;9.88;;
63906;SDS011;50075;49.484;11.238;2022-12-05T12:19:35;49.25;;;12.15;;
63906;SDS011;50075;49.484;11.238;2022-12-05T12:36:28;37.13;;;8.85;;
63906;SDS011;50075;49.484;11.238;2022-12-05T12:42:23;37.22;;;9.63;;
63906;SDS011;50075;49.484;11.238;2022-12-05T12:45:07;36.88;;;9.70;;
63906;SDS011;50075;49.484;11.238;2022-12-05T12:50:21;45.70;;;10.35;;
63906;SDS011;50075;49.484;11.238;2022-12-05T12:55:24;49.03;;;10.85;;
63906;SDS011;50075;49.484;11.238;2022-12-05T13:03:45;49.55;;;10.57;;
63906;SDS011;50075;49.484;11.238;2022-12-05T13:06:27;39.87;;;9.97;;
63906;SDS011;50075;49.484;11.238;2022-12-05T13:08:58;39.00;;;8.43;;
63906;SDS011;50075;49.484;11.238;2022-12-05T13:11:29;40.45;;;9.35;;
63906;SDS011;50075;49.484;11.238;2022-12-05T13:14:00;37.35;;;9.43;;
63906;SDS011;50075;49.484;11.238;2022-12-05T13:16:29;44.00;;;10.60;;
63906;SDS011;50075;49.484;11.238;2022-12-05T13:19:01;42.55;;;10.20;;
63906;SDS011;50075;49.484;11.238;2022-12-05T13:21:29;38.78;;;8.82;;
63906;SDS011;50075;49.484;11.238;2022-12-05T13:23:55;47.25;;;10.02;;
63906;SDS011;50075;49.484;11.238;2022-12-05T13:26:27;44.72;;;10.50;;
63906;SDS011;50075;49.484;11.238;2022-12-05T13:28:55;47.58;;;11.00;;
63906;SDS011;50075;49.484;11.238;2022-12-05T13:31:38;44.90;;;10.68;;
63906;SDS011;50075;49.484;11.238;2022-12-05T13:34:05;41.45;;;10.27;;
63906;SDS011;50075;49.484;11.238;2022-12-05T13:36:50;45.10;;;9.95;;
63906;SDS011;50075;49.484;11.238;2022-12-05T13:39:35;38.08;;;9.48;;
63906;SDS011;50075;49.484;11.238;2022-12-05T13:42:20;43.70;;;10.43;;
63906;SDS011;50075;49.484;11.238;2022-12-05T13:44:52;42.53;;;10.70;;
63906;SDS011;50075;49.484;11.238;2022-12-05T13:52:48;40.15;;;10.13;;
63906;SDS011;50075;49.484;11.238;2022-12-05T13:57:45;36.42;;;8.70;;
63906;SDS011;50075;49.484;11.238;2022-12-05T14:07:44;37.77;;;9.93;;
63906;SDS011;50075;49.484;11.238;2022-12-05T14:15:42;40.60;;;10.10;;
63906;SDS011;50075;49.484;11.238;2022-12-05T14:18:30;38.50;;;10.15;;
63906;SDS011;50075;49.484;11.238;2022-12-05T14:21:53;41.97;;;9.77;;
63906;SDS011;50075;49.484;11.238;2022-12-05T14:24:26;33.65;;;8.50;;
63906;SDS011;50075;49.484;11.238;2022-12-05T14:27:27;43.00;;;9.10;;
63906;SDS011;50075;49.484;11.238;2022-12-05T14:32:35;44.58;;;10.02;;
63906;SDS011;50075;49.484;11.238;2022-12-05T14:35:09;43.95;;;10.20;;
63906;SDS011;50075;49.484;11.238;2022-12-05T14:37:50;50.50;;;10.70;;
63906;SDS011;50075;49.484;11.238;2022-12-05T14:47:53;51.95;;;10.43;;
63906;SDS011;50075;49.484;11.238;2022-12-05T14:50:37;45.08;;;10.77;;
63906;SDS011;50075;49.484;11.238;2022-12-05T14:58:19;35.42;;;10.02;;
63906;SDS011;50075;49.484;11.238;2022-12-05T15:00:56;44.92;;;10.85;;
63906;SDS011;50075;49.484;11.238;2022-12-05T15:06:00;38.28;;;9.05;;
63906;SDS011;50075;49.484;11.238;2022-12-05T15:08:29;39.33;;;9.18;;
63906;SDS011;50075;49.484;11.238;2022-12-05T15:11:05;39.53;;;9.68;;
63906;SDS011;50075;49.484;11.238;2022-12-05T15:13:30;38.55;;;10.15;;
63906;SDS011;50075;49.484;11.238;2022-12-05T15:16:01;43.90;;;9.88;;
63906;SDS011;50075;49.484;11.238;2022-12-05T15:21:31;42.08;;;9.43;;
63906;SDS011;50075;49.484;11.238;2022-12-05T15:24:01;48.50;;;11.32;;
63906;SDS011;50075;49.484;11.238;2022-12-05T15:26:37;49.30;;;10.90;;
63906;SDS011;50075;49.484;11.238;2022-12-05T15:29:10;34.95;;;9.77;;
63906;SDS011;50075;49.484;11.238;2022-12-05T15:37:25;42.42;;;9.95;;
63906;SDS011;50075;49.484;11.238;2022-12-05T15:44:58;44.55;;;9.70;;
63906;SDS011;50075;49.484;11.238;2022-12-05T15:47:48;46.60;;;10.80;;
63906;SDS011;50075;49.484;11.238;2022-12-05T15:50:30;37.42;;;9.77;;
63906;SDS011;50075;49.484;11.238;2022-12-05T15:55:42;44.47;;;10.73;;
63906;SDS011;50075;49.484;11.238;2022-12-05T16:01:02;49.45;;;11.23;;
63906;SDS011;50075;49.484;11.238;2022-12-05T16:03:39;47.08;;;10.93;;
63906;SDS011;50075;49.484;11.238;2022-12-05T16:06:17;40.85;;;10.20;;
63906;SDS011;50075;49.484;11.238;2022-12-05T16:08:48;42.00;;;10.35;;
63906;SDS011;50075;49.484;11.238;2022-12-05T16:11:14;42.75;;;9.50;;
63906;SDS011;50075;49.484;11.238;2022-12-05T16:13:44;44.17;;;10.63;;
63906;SDS011;50075;49.484;11.238;2022-12-05T16:16:15;35.08;;;10.10;;
63906;SDS011;50075;49.484;11.238;2022-12-05T16:18:48;45.45;;;11.23;;
63906;SDS011;50075;49.484;11.238;2022-12-05T16:26:30;38.60;;;10.75;;
63906;SDS011;50075;49.484;11.238;2022-12-05T16:29:01;42.45;;;10.80;;
63906;SDS011;50075;49.484;11.238;2022-12-05T16:31:28;36.53;;;10.30;;
63906;SDS011;50075;49.484;11.238;2022-12-05T16:34:06;45.42;;;11.63;;
63906;SDS011;50075;49.484;11.238;2022-12-05T16:36:45;42.95;;;11.63;;
63906;SDS011;50075;49.484;11.238;2022-12-05T16:39:13;41.63;;;10.30;;
63906;SDS011;50075;49.484;11.238;2022-12-05T16:41:39;41.53;;;10.65;;
63906;SDS011;50075;49.484;11.238;2022-12-05T16:44:39;45.05;;;11.55;;
63906;SDS011;50075;49.484;11.238;2022-12-05T16:53:21;40.50;;;10.85;;
63906;SDS011;50075;49.484;11.238;2022-12-05T16:55:47;41.60;;;11.40;;
63906;SDS011;50075;49.484;11.238;2022-12-05T16:58:16;34.88;;;10.15;;
63906;SDS011;50075;49.484;11.238;2022-12-05T17:00:47;43.03;;;11.15;;
63906;SDS011;50075;49.484;11.238;2022-12-05T17:03:13;50.25;;;12.30;;
63906;SDS011;50075;49.484;11.238;2022-12-05T17:05:39;37.92;;;10.50;;
63906;SDS011;50075;49.484;11.238;2022-12-05T17:08:05;27.92;;;7.70;;
63906;SDS011;50075;49.484;11.238;2022-12-05T17:10:30;48.72;;;12.35;;
63906;SDS011;50075;49.484;11.238;2022-12-05T17:12:56;41.58;;;11.00;;
63906;SDS011;50075;49.484;11.238;2022-12-05T17:15:24;43.70;;;10.90;;
63906;SDS011;50075;49.484;11.238;2022-12-05T17:17:49;38.50;;;10.95;;
63906;SDS011;50075;49.484;11.238;2022-12-05T17:20:15;41.35;;;11.13;;
63906;SDS011;50075;49.484;11.238;2022-12-05T17:22:40;38.20;;;11.18;;
63906;SDS011;50075;49.484;11.238;2022-12-05T17:25:15;35.13;;;10.25;;
63906;SDS011;50075;49.484;11.238;2022-12-05T17:27:44;37.30;;;10.13;;
63906;SDS011;50075;49.484;11.238;2022-12-05T17:30:09;27.30;;;8.38;;
63906;SDS011;50075;49.484;11.238;2022-12-05T17:32:35;40.10;;;9.68;;
63906;SDS011;50075;49.484;11.238;2022-12-05T17:35:00;27.85;;;8.82;;
63906;SDS011;50075;49.484;11.238;2022-12-05T17:37:25;34.95;;;9.43;;
63906;SDS011;50075;49.484;11.238;2022-12-05T17:39:51;33.58;;;8.68;;
63906;SDS011;50075;49.484;11.238;2022-12-05T17:42:16;33.38;;;9.00;;
63906;SDS011;50075;49.484;11.238;2022-12-05T17:44:41;33.13;;;9.20;;
63906;SDS011;50075;49.484;11.238;2022-12-05T17:47:07;29.48;;;8.43;;
63906;SDS011;50075;49.484;11.238;2022-12-05T17:49:33;24.80;;;8.70;;
63906;SDS011;50075;49.484;11.238;2022-12-05T17:51:58;31.05;;;8.75;;